createdAt,value
2023-05-09T00:00:56.395Z,503.00
2023-05-09T00:01:56.752Z,505.00
2023-05-09T00:02:56.456Z,509.00
2023-05-09T00:03:56.485Z,502.00
2023-05-09T00:04:56.465Z,504.00
2023-05-09T00:05:56.451Z,505.00
2023-05-09T00:06:56.496Z,502.00
2023-05-09T00:07:56.476Z,505.00
2023-05-09T00:08:56.506Z,506.00
2023-05-09T00:09:56.514Z,503.00
2023-05-09T00:10:56.584Z,505.00
2023-05-09T00:11:56.568Z,504.00
2023-05-09T00:12:56.594Z,504.00
2023-05-09T00:13:56.559Z,506.00
2023-05-09T00:14:56.570Z,508.00
2023-05-09T00:15:56.617Z,503.00
2023-05-09T00:16:56.579Z,504.00
2023-05-09T00:17:56.675Z,500.00
2023-05-09T00:18:56.509Z,504.00
2023-05-09T00:19:56.533Z,504.00
2023-05-09T00:20:56.539Z,504.00
2023-05-09T00:21:56.549Z,500.00
2023-05-09T00:22:56.524Z,507.00
2023-05-09T00:23:56.495Z,506.00
2023-05-09T00:24:56.526Z,505.00
2023-05-09T00:25:56.510Z,502.00
2023-05-09T00:26:56.506Z,505.00
2023-05-09T00:27:56.481Z,505.00
2023-05-09T00:28:56.508Z,511.00
2023-05-09T00:29:56.509Z,502.00
2023-05-09T00:30:56.549Z,503.00
2023-05-09T00:31:56.548Z,503.00
2023-05-09T00:32:56.577Z,510.00
2023-05-09T00:33:56.606Z,502.00
2023-05-09T00:34:56.503Z,506.00
2023-05-09T00:35:56.509Z,504.00
2023-05-09T00:36:56.497Z,505.00
2023-05-09T00:37:56.565Z,505.00
2023-05-09T00:38:56.514Z,506.00
2023-05-09T00:39:56.570Z,504.00
2023-05-09T00:40:56.614Z,506.00
2023-05-09T00:41:56.616Z,506.00
2023-05-09T00:42:56.691Z,505.00
2023-05-09T00:43:56.717Z,503.00
2023-05-09T00:44:56.739Z,505.00
2023-05-09T00:45:56.831Z,506.00
2023-05-09T00:46:56.789Z,506.00
2023-05-09T00:47:56.904Z,506.00
2023-05-09T00:48:56.793Z,503.00
2023-05-09T00:49:56.920Z,504.00
2023-05-09T00:50:56.883Z,505.00
2023-05-09T00:51:56.913Z,502.00
2023-05-09T00:52:56.917Z,503.00
2023-05-09T00:53:56.918Z,508.00
2023-05-09T00:54:56.902Z,505.00
2023-05-09T00:55:56.919Z,504.00
2023-05-09T00:56:56.934Z,502.00
2023-05-09T00:57:56.946Z,507.00
2023-05-09T00:58:56.957Z,506.00
2023-05-09T00:59:56.956Z,502.00
2023-05-09T01:00:56.970Z,502.00
2023-05-09T01:01:56.970Z,510.00
2023-05-09T01:02:57.158Z,507.00
2023-05-09T01:03:56.979Z,509.00
2023-05-09T01:04:57.000Z,504.00
2023-05-09T01:05:57.064Z,503.00
2023-05-09T01:06:57.013Z,503.00
2023-05-09T01:07:56.969Z,502.00
2023-05-09T01:08:57.031Z,505.00
2023-05-09T01:09:57.044Z,503.00
2023-05-09T01:10:57.065Z,504.00
2023-05-09T01:11:57.133Z,502.00
2023-05-09T01:12:57.138Z,506.00
2023-05-09T01:13:57.150Z,507.00
2023-05-09T01:14:57.173Z,505.00
2023-05-09T01:15:57.185Z,502.00
2023-05-09T01:16:57.663Z,504.00
2023-05-09T01:17:57.277Z,503.00
2023-05-09T01:18:57.286Z,503.00
2023-05-09T01:19:57.281Z,503.00
2023-05-09T01:20:57.306Z,505.00
2023-05-09T01:21:57.460Z,506.00
2023-05-09T01:22:57.314Z,504.00
2023-05-09T01:23:57.340Z,501.00
2023-05-09T01:24:57.341Z,504.00
2023-05-09T01:25:57.318Z,508.00
2023-05-09T01:26:57.343Z,504.00
2023-05-09T01:27:57.337Z,502.00
2023-05-09T01:28:57.327Z,501.00
2023-05-09T01:29:57.351Z,511.00
2023-05-09T01:30:57.349Z,506.00
2023-05-09T01:31:57.325Z,504.00
2023-05-09T01:32:57.344Z,502.00
2023-05-09T01:33:57.342Z,507.00
2023-05-09T01:34:57.312Z,502.00
2023-05-09T01:35:57.382Z,506.00
2023-05-09T01:36:57.342Z,505.00
2023-05-09T01:37:57.430Z,509.00
2023-05-09T01:38:57.358Z,515.00
2023-05-09T01:39:57.366Z,510.00
2023-05-09T01:40:57.360Z,503.00
2023-05-09T01:41:57.639Z,506.00
2023-05-09T01:42:57.368Z,505.00
2023-05-09T01:43:57.497Z,506.00
2023-05-09T01:44:57.397Z,504.00
2023-05-09T01:45:57.429Z,508.00
2023-05-09T01:46:57.474Z,510.00
2023-05-09T01:47:57.499Z,502.00
2023-05-09T01:48:57.435Z,507.00
2023-05-09T01:49:57.443Z,502.00
2023-05-09T01:50:57.412Z,509.00
2023-05-09T01:51:57.434Z,506.00
2023-05-09T01:52:57.456Z,503.00
2023-05-09T01:53:57.601Z,507.00
2023-05-09T01:54:57.428Z,512.00
2023-05-09T01:55:57.447Z,510.00
2023-05-09T01:56:57.535Z,504.00
2023-05-09T01:57:57.477Z,504.00
2023-05-09T01:58:57.478Z,502.00
2023-05-09T01:59:57.485Z,503.00
2023-05-09T02:00:57.512Z,509.00
2023-05-09T02:01:57.672Z,505.00
2023-05-09T02:02:57.534Z,504.00
2023-05-09T02:03:57.445Z,506.00
2023-05-09T02:04:57.470Z,506.00
2023-05-09T02:05:57.491Z,501.00
2023-05-09T02:06:57.467Z,509.00
2023-05-09T02:07:57.451Z,504.00
2023-05-09T02:08:57.513Z,513.00
2023-05-09T02:09:57.560Z,505.00
2023-05-09T02:10:57.527Z,504.00
2023-05-09T02:11:57.548Z,505.00
2023-05-09T02:12:57.635Z,507.00
2023-05-09T02:13:57.540Z,509.00
2023-05-09T02:14:57.556Z,502.00
2023-05-09T02:15:57.553Z,504.00
2023-05-09T02:16:57.604Z,506.00
2023-05-09T02:17:57.569Z,506.00
2023-05-09T02:18:57.523Z,504.00
2023-05-09T02:19:57.560Z,505.00
2023-05-09T02:20:57.514Z,505.00
2023-05-09T02:21:57.668Z,505.00
2023-05-09T02:22:57.520Z,510.00
2023-05-09T02:23:57.467Z,504.00
2023-05-09T02:24:57.471Z,505.00
2023-05-09T02:25:57.577Z,506.00
2023-05-09T02:26:57.694Z,504.00
2023-05-09T02:27:57.465Z,511.00
2023-05-09T02:28:57.449Z,506.00
2023-05-09T02:29:57.446Z,508.00
2023-05-09T02:30:57.472Z,508.00
2023-05-09T02:31:57.516Z,505.00
2023-05-09T02:32:57.477Z,504.00
2023-05-09T02:33:57.476Z,507.00
2023-05-09T02:34:57.462Z,500.00
2023-05-09T02:35:57.455Z,506.00
2023-05-09T02:36:57.448Z,505.00
2023-05-09T02:37:57.479Z,503.00
2023-05-09T02:38:57.430Z,503.00
2023-05-09T02:39:57.435Z,502.00
2023-05-09T02:40:57.428Z,507.00
2023-05-09T02:41:57.537Z,507.00
2023-05-09T02:42:57.444Z,506.00
2023-05-09T02:43:57.430Z,508.00
2023-05-09T02:44:57.414Z,503.00
2023-05-09T02:45:57.482Z,505.00
2023-05-09T02:46:57.436Z,504.00
2023-05-09T02:47:57.450Z,510.00
2023-05-09T02:48:57.431Z,503.00
2023-05-09T02:49:57.423Z,510.00
2023-05-09T02:50:57.387Z,505.00
2023-05-09T02:51:57.408Z,501.00
2023-05-09T02:52:57.404Z,503.00
2023-05-09T02:53:57.369Z,507.00
2023-05-09T02:54:57.426Z,506.00
2023-05-09T02:55:57.392Z,506.00
2023-05-09T02:56:57.670Z,506.00
2023-05-09T02:58:11.889Z,502.00
2023-05-09T02:58:58.387Z,503.00
2023-05-09T02:59:57.406Z,504.00
2023-05-09T03:00:57.393Z,504.00
2023-05-09T03:01:57.470Z,506.00
2023-05-09T03:02:57.485Z,509.00
2023-05-09T03:03:57.400Z,508.00
2023-05-09T03:04:57.346Z,508.00
2023-05-09T03:05:57.383Z,503.00
2023-05-09T03:06:57.361Z,505.00
2023-05-09T03:07:57.330Z,503.00
2023-05-09T03:08:57.350Z,509.00
2023-05-09T03:09:57.331Z,508.00
2023-05-09T03:10:57.334Z,507.00
2023-05-09T03:11:57.343Z,509.00
2023-05-09T03:12:57.341Z,503.00
2023-05-09T03:13:57.401Z,502.00
2023-05-09T03:14:57.306Z,505.00
2023-05-09T03:15:57.314Z,501.00
2023-05-09T03:16:57.317Z,508.00
2023-05-09T03:17:57.381Z,504.00
2023-05-09T03:18:57.284Z,504.00
2023-05-09T03:19:57.298Z,504.00
2023-05-09T03:20:57.307Z,517.00
2023-05-09T03:21:57.245Z,504.00
2023-05-09T03:22:57.729Z,508.00
2023-05-09T03:23:57.244Z,506.00
2023-05-09T03:24:57.231Z,505.00
2023-05-09T03:25:57.250Z,501.00
2023-05-09T03:26:57.241Z,505.00
2023-05-09T03:27:57.203Z,508.00
2023-05-09T03:28:57.202Z,505.00
2023-05-09T03:29:57.293Z,504.00
2023-05-09T03:30:57.183Z,502.00
2023-05-09T03:31:57.203Z,505.00
2023-05-09T03:32:57.189Z,510.00
2023-05-09T03:33:57.199Z,503.00
2023-05-09T03:34:57.150Z,509.00
2023-05-09T03:35:57.142Z,505.00
2023-05-09T03:36:57.244Z,502.00
2023-05-09T03:37:57.170Z,501.00
2023-05-09T03:38:57.149Z,506.00
2023-05-09T03:39:57.138Z,503.00
2023-05-09T03:40:57.150Z,504.00
2023-05-09T03:41:57.142Z,505.00
2023-05-09T03:42:57.165Z,502.00
2023-05-09T03:43:57.083Z,503.00
2023-05-09T03:44:57.123Z,508.00
2023-05-09T03:45:57.215Z,503.00
2023-05-09T03:46:57.110Z,509.00
2023-05-09T03:47:57.108Z,505.00
2023-05-09T03:48:57.109Z,505.00
2023-05-09T03:49:57.069Z,504.00
2023-05-09T03:50:57.075Z,505.00
2023-05-09T03:51:57.117Z,503.00
2023-05-09T03:52:57.112Z,512.00
2023-05-09T03:53:57.055Z,510.00
2023-05-09T03:54:57.045Z,505.00
2023-05-09T03:55:57.042Z,505.00
2023-05-09T03:56:57.044Z,510.00
2023-05-09T03:57:57.050Z,510.00
2023-05-09T03:58:57.008Z,507.00
2023-05-09T03:59:57.013Z,502.00
2023-05-09T04:00:56.999Z,508.00
2023-05-09T04:01:57.106Z,506.00
2023-05-09T04:02:57.038Z,509.00
2023-05-09T04:03:57.014Z,505.00
2023-05-09T04:04:56.999Z,507.00
2023-05-09T04:05:56.978Z,505.00
2023-05-09T04:06:56.976Z,507.00
2023-05-09T04:07:56.957Z,504.00
2023-05-09T04:08:56.962Z,506.00
2023-05-09T04:09:56.930Z,507.00
2023-05-09T04:10:56.937Z,503.00
2023-05-09T04:11:56.903Z,501.00
2023-05-09T04:12:56.978Z,511.00
2023-05-09T04:13:56.968Z,500.00
2023-05-09T04:14:56.887Z,506.00
2023-05-09T04:15:56.894Z,506.00
2023-05-09T04:16:56.990Z,502.00
2023-05-09T04:17:57.104Z,510.00
2023-05-09T04:18:56.894Z,510.00
2023-05-09T04:19:56.931Z,504.00
2023-05-09T04:20:56.878Z,505.00
2023-05-09T04:21:56.878Z,506.00
2023-05-09T04:22:56.864Z,503.00
2023-05-09T04:23:56.859Z,505.00
2023-05-09T04:24:56.870Z,506.00
2023-05-09T04:25:56.862Z,511.00
2023-05-09T04:26:56.879Z,500.00
2023-05-09T04:27:56.877Z,504.00
2023-05-09T04:28:56.850Z,509.00
2023-05-09T04:29:56.882Z,505.00
2023-05-09T04:30:56.889Z,503.00
2023-05-09T04:31:56.945Z,507.00
2023-05-09T04:32:56.907Z,506.00
2023-05-09T04:33:56.958Z,503.00
2023-05-09T04:34:56.876Z,504.00
2023-05-09T04:35:56.860Z,505.00
2023-05-09T04:36:56.863Z,510.00
2023-05-09T04:37:56.816Z,507.00
2023-05-09T04:38:56.823Z,505.00
2023-05-09T04:39:56.829Z,503.00
2023-05-09T04:40:56.821Z,507.00
2023-05-09T04:41:56.816Z,504.00
2023-05-09T04:42:56.848Z,502.00
2023-05-09T04:43:56.819Z,508.00
2023-05-09T04:44:56.822Z,504.00
2023-05-09T04:45:56.848Z,503.00
2023-05-09T04:46:56.823Z,507.00
2023-05-09T04:47:57.265Z,503.00
2023-05-09T04:48:56.809Z,508.00
2023-05-09T04:49:56.901Z,506.00
2023-05-09T04:50:56.825Z,507.00
2023-05-09T04:51:56.822Z,508.00
2023-05-09T04:52:56.850Z,507.00
2023-05-09T04:53:56.819Z,508.00
2023-05-09T04:54:56.856Z,506.00
2023-05-09T04:55:56.845Z,503.00
2023-05-09T04:57:09.944Z,503.00
2023-05-09T04:57:57.893Z,503.00
2023-05-09T04:58:56.831Z,504.00
2023-05-09T04:59:56.819Z,504.00
2023-05-09T05:00:56.819Z,506.00
2023-05-09T05:01:56.865Z,505.00
2023-05-09T05:02:57.289Z,505.00
2023-05-09T05:03:56.813Z,510.00
2023-05-09T05:05:10.258Z,510.00
2023-05-09T05:05:57.884Z,510.00
2023-05-09T05:06:56.773Z,511.00
2023-05-09T05:07:56.823Z,505.00
2023-05-09T05:08:56.756Z,503.00
2023-05-09T05:09:56.753Z,509.00
2023-05-09T05:10:56.776Z,512.00
2023-05-09T05:12:01.270Z,511.00
2023-05-09T05:12:57.785Z,511.00
2023-05-09T05:13:56.771Z,508.00
2023-05-09T05:14:56.726Z,507.00
2023-05-09T05:15:56.738Z,508.00
2023-05-09T05:16:56.689Z,509.00
2023-05-09T05:17:56.730Z,502.00
2023-05-09T05:18:56.697Z,505.00
2023-05-09T05:19:56.700Z,507.00
2023-05-09T05:20:56.712Z,508.00
2023-05-09T05:21:56.850Z,506.00
2023-05-09T05:22:56.671Z,508.00
2023-05-09T05:23:56.662Z,504.00
2023-05-09T05:24:56.663Z,504.00
2023-05-09T05:25:56.669Z,503.00
2023-05-09T05:26:56.633Z,501.00
2023-05-09T05:27:56.750Z,504.00
2023-05-09T05:28:56.634Z,503.00
2023-05-09T05:29:56.610Z,500.00
2023-05-09T05:30:56.602Z,507.00
2023-05-09T05:31:56.723Z,501.00
2023-05-09T05:32:56.633Z,502.00
2023-05-09T05:33:56.599Z,509.00
2023-05-09T05:34:56.580Z,504.00
2023-05-09T05:35:56.569Z,508.00
2023-05-09T05:36:56.568Z,509.00
2023-05-09T05:37:56.673Z,505.00
2023-05-09T05:38:56.584Z,506.00
2023-05-09T05:39:56.550Z,506.00
2023-05-09T05:40:56.558Z,500.00
2023-05-09T05:41:56.521Z,507.00
2023-05-09T05:42:56.718Z,501.00
2023-05-09T05:43:56.526Z,506.00
2023-05-09T05:44:56.507Z,507.00
2023-05-09T05:45:56.547Z,508.00
2023-05-09T05:46:56.506Z,509.00
2023-05-09T05:47:56.556Z,512.00
2023-05-09T05:48:56.462Z,512.00
2023-05-09T05:49:56.494Z,517.00
2023-05-09T05:50:56.492Z,520.00
2023-05-09T05:51:56.494Z,512.00
2023-05-09T05:52:56.746Z,511.00
2023-05-09T05:53:56.547Z,521.00
2023-05-09T05:54:56.491Z,525.00
2023-05-09T05:55:56.449Z,533.00
2023-05-09T05:56:56.447Z,530.00
2023-05-09T05:57:56.771Z,533.00
2023-05-09T05:58:56.409Z,521.00
2023-05-09T05:59:56.413Z,541.00
2023-05-09T06:00:56.459Z,543.00
2023-05-09T06:01:56.451Z,549.00
2023-05-09T06:02:56.847Z,543.00
2023-05-09T06:03:56.510Z,541.00
2023-05-09T06:04:56.380Z,539.00
2023-05-09T06:05:56.413Z,547.00
2023-05-09T06:06:56.402Z,540.00
2023-05-09T06:07:56.391Z,547.00
2023-05-09T06:08:56.421Z,551.00
2023-05-09T06:09:56.491Z,546.00
2023-05-09T06:10:56.391Z,547.00
2023-05-09T06:11:56.405Z,559.00
2023-05-09T06:12:56.449Z,565.00
2023-05-09T06:13:56.423Z,568.00
2023-05-09T06:14:56.407Z,578.00
2023-05-09T06:16:01.934Z,594.00
2023-05-09T06:16:57.521Z,594.00
2023-05-09T06:17:56.796Z,595.00
2023-05-09T06:18:56.465Z,605.00
2023-05-09T06:19:56.410Z,609.00
2023-05-09T06:20:56.395Z,621.00
2023-05-09T06:21:56.415Z,623.00
2023-05-09T06:22:56.408Z,633.00
2023-05-09T06:24:56.371Z,641.00
2023-05-09T06:25:56.466Z,638.00
2023-05-09T06:26:56.352Z,645.00
2023-05-09T06:27:56.361Z,651.00
2023-05-09T06:28:56.343Z,640.00
2023-05-09T06:29:56.340Z,649.00
2023-05-09T06:30:56.362Z,648.00
2023-05-09T06:31:56.346Z,640.00
2023-05-09T06:32:56.366Z,633.00
2023-05-09T06:33:56.345Z,635.00
2023-05-09T06:34:56.308Z,636.00
2023-05-09T06:35:56.325Z,641.00
2023-05-09T06:36:56.283Z,641.00
2023-05-09T06:37:56.339Z,642.00
2023-05-09T06:38:56.294Z,636.00
2023-05-09T06:39:56.275Z,641.00
2023-05-09T06:40:56.271Z,633.00
2023-05-09T06:41:56.354Z,637.00
2023-05-09T06:42:56.752Z,643.00
2023-05-09T06:43:56.274Z,637.00
2023-05-09T06:44:56.286Z,642.00
2023-05-09T06:45:56.270Z,639.00
2023-05-09T06:46:56.210Z,640.00
2023-05-09T06:47:56.299Z,650.00
2023-05-09T06:48:56.207Z,642.00
2023-05-09T06:49:56.223Z,646.00
2023-05-09T06:50:56.222Z,653.00
2023-05-09T06:51:56.199Z,656.00
2023-05-09T06:52:56.236Z,674.00
2023-05-09T06:53:56.242Z,685.00
2023-05-09T06:54:56.176Z,676.00
2023-05-09T06:55:56.158Z,662.00
2023-05-09T06:56:56.163Z,667.00
2023-05-09T06:57:56.257Z,677.00
2023-05-09T06:58:56.171Z,682.00
2023-05-09T06:59:56.168Z,680.00
2023-05-09T07:00:56.134Z,682.00
2023-05-09T07:01:56.145Z,698.00
2023-05-09T07:02:56.152Z,683.00
2023-05-09T07:03:56.117Z,691.00
2023-05-09T07:04:56.181Z,691.00
2023-05-09T07:05:56.096Z,703.00
2023-05-09T07:06:56.129Z,702.00
2023-05-09T07:07:56.098Z,694.00
2023-05-09T07:08:56.098Z,701.00
2023-05-09T07:10:07.290Z,685.00
2023-05-09T07:10:57.042Z,686.00
2023-05-09T07:11:56.066Z,688.00
2023-05-09T07:12:56.129Z,686.00
2023-05-09T07:13:56.143Z,684.00
2023-05-09T07:14:56.025Z,703.00
2023-05-09T07:15:56.096Z,697.00
2023-05-09T07:17:05.155Z,697.00
2023-05-09T07:17:57.092Z,698.00
2023-05-09T07:18:56.007Z,704.00
2023-05-09T07:19:55.979Z,723.00
2023-05-09T07:20:56.010Z,737.00
2023-05-09T07:21:55.996Z,735.00
2023-05-09T07:22:56.048Z,756.00
2023-05-09T07:23:56.258Z,756.00
2023-05-09T07:24:55.966Z,752.00
2023-05-09T07:25:55.970Z,762.00
2023-05-09T07:26:55.940Z,768.00
2023-05-09T07:27:55.959Z,770.00
2023-05-09T07:28:55.988Z,775.00
2023-05-09T07:29:56.050Z,776.00
2023-05-09T07:30:55.927Z,786.00
2023-05-09T07:31:55.940Z,778.00
2023-05-09T07:32:55.973Z,792.00
2023-05-09T07:33:56.297Z,805.00
2023-05-09T07:34:55.922Z,821.00
2023-05-09T07:35:55.963Z,818.00
2023-05-09T07:36:55.996Z,812.00
2023-05-09T07:37:56.974Z,813.00
2023-05-09T07:38:56.309Z,813.00
2023-05-09T07:39:55.974Z,806.00
2023-05-09T07:40:55.989Z,812.00
2023-05-09T07:41:55.940Z,816.00
2023-05-09T07:42:55.959Z,830.00
2023-05-09T07:43:56.289Z,828.00
2023-05-09T07:44:55.912Z,843.00
2023-05-09T07:45:56.055Z,854.00
2023-05-09T07:46:55.901Z,852.00
2023-05-09T07:47:55.959Z,840.00
2023-05-09T07:48:56.275Z,847.00
2023-05-09T07:49:55.906Z,841.00
2023-05-09T07:50:55.900Z,849.00
2023-05-09T07:51:55.928Z,850.00
2023-05-09T07:52:55.832Z,861.00
2023-05-09T07:53:55.841Z,848.00
2023-05-09T07:54:55.876Z,864.00
2023-05-09T07:55:55.870Z,883.00
2023-05-09T07:56:55.845Z,896.00
2023-05-09T07:57:55.791Z,857.00
2023-05-09T07:58:56.006Z,829.00
2023-05-09T07:59:55.806Z,810.00
2023-05-09T08:00:55.808Z,804.00
2023-05-09T08:01:55.967Z,841.00
2023-05-09T08:02:55.848Z,866.00
2023-05-09T08:03:56.337Z,892.00
2023-05-09T08:04:55.785Z,868.00
2023-05-09T08:05:55.783Z,878.00
2023-05-09T08:06:55.762Z,896.00
2023-05-09T08:07:55.775Z,925.00
2023-05-09T08:08:55.757Z,948.00
2023-05-09T08:09:55.751Z,969.00
2023-05-09T08:10:55.723Z,984.00
2023-05-09T08:11:55.738Z,1012.00
2023-05-09T08:12:55.759Z,1026.00
2023-05-09T08:13:55.726Z,1041.00
2023-05-09T08:14:55.711Z,1034.00
2023-05-09T08:15:55.728Z,1071.00
2023-05-09T08:16:55.714Z,1073.00
2023-05-09T08:17:55.862Z,1088.00
2023-05-09T08:18:55.826Z,1101.00
2023-05-09T08:19:55.667Z,1112.00
2023-05-09T08:20:55.673Z,1103.00
2023-05-09T08:21:55.679Z,1118.00
2023-05-09T08:22:55.683Z,1130.00
2023-05-09T08:23:55.668Z,1131.00
2023-05-09T08:24:55.707Z,1148.00
2023-05-09T08:25:55.773Z,1150.00
2023-05-09T08:26:55.825Z,1161.00
2023-05-09T08:27:55.886Z,1184.00
2023-05-09T08:28:56.283Z,1191.00
2023-05-09T08:29:56.007Z,1194.00
2023-05-09T08:30:56.151Z,1184.00
2023-05-09T08:31:56.246Z,1182.00
2023-05-09T08:32:56.212Z,1224.00
2023-05-09T08:33:56.331Z,1179.00
2023-05-09T08:34:56.296Z,1207.00
2023-05-09T08:35:56.408Z,1212.00
2023-05-09T08:36:56.414Z,1236.00
2023-05-09T08:37:56.473Z,1257.00
2023-05-09T08:38:56.806Z,1260.00
2023-05-09T08:39:56.557Z,1248.00
2023-05-09T08:40:56.631Z,1265.00
2023-05-09T08:41:56.702Z,1237.00
2023-05-09T08:42:56.745Z,1254.00
2023-05-09T08:43:56.792Z,1287.00
2023-05-09T08:44:56.832Z,1276.00
2023-05-09T08:45:56.893Z,1286.00
2023-05-09T08:46:56.967Z,1280.00
2023-05-09T08:47:57.069Z,1258.00
2023-05-09T08:48:57.312Z,1298.00
2023-05-09T08:49:57.163Z,1303.00
2023-05-09T08:50:57.087Z,1259.00
2023-05-09T08:51:57.148Z,1247.00
2023-05-09T08:52:57.198Z,1243.00
2023-05-09T08:53:57.223Z,1178.00
2023-05-09T08:54:57.270Z,1110.00
2023-05-09T08:55:57.306Z,1099.00
2023-05-09T08:56:57.367Z,1094.00
2023-05-09T08:57:57.494Z,1070.00
2023-05-09T08:58:57.554Z,1032.00
2023-05-09T08:59:57.599Z,1028.00
2023-05-09T09:00:57.659Z,1062.00
2023-05-09T09:01:57.730Z,1053.00
2023-05-09T09:02:57.798Z,1067.00
2023-05-09T09:03:58.299Z,1085.00
2023-05-09T09:04:57.928Z,1108.00
2023-05-09T09:05:58.111Z,1119.00
2023-05-09T09:06:57.990Z,1118.00
2023-05-09T09:07:58.057Z,1133.00
2023-05-09T09:08:58.342Z,1120.00
2023-05-09T09:09:58.139Z,1131.00
2023-05-09T09:10:58.218Z,1128.00
2023-05-09T09:11:58.221Z,1125.00
2023-05-09T09:12:58.323Z,1148.00
2023-05-09T09:13:58.368Z,1149.00
2023-05-09T09:14:58.397Z,1193.00
2023-05-09T09:15:58.539Z,1159.00
2023-05-09T09:16:58.596Z,1178.00
2023-05-09T09:17:58.547Z,1161.00
2023-05-09T09:18:59.175Z,1152.00
2023-05-09T09:19:59.547Z,1154.00
2023-05-09T09:20:58.555Z,1157.00
2023-05-09T09:21:58.622Z,1169.00
2023-05-09T09:22:58.499Z,1184.00
2023-05-09T09:23:58.812Z,1220.00
2023-05-09T09:24:58.510Z,1238.00
2023-05-09T09:25:59.757Z,1229.00
2023-05-09T09:26:58.565Z,1216.00
2023-05-09T09:27:58.566Z,1250.00
2023-05-09T09:28:58.589Z,1177.00
2023-05-09T09:29:58.627Z,1201.00
2023-05-09T09:30:58.659Z,1200.00
2023-05-09T09:31:58.734Z,1225.00
2023-05-09T09:32:58.728Z,1245.00
2023-05-09T09:33:58.746Z,1241.00
2023-05-09T09:34:58.758Z,1222.00
2023-05-09T09:35:58.805Z,1161.00
2023-05-09T09:36:58.845Z,1067.00
2023-05-09T09:38:00.105Z,906.00
2023-05-09T09:38:59.328Z,893.00
2023-05-09T09:39:59.012Z,888.00
2023-05-09T09:40:59.011Z,829.00
2023-05-09T09:41:59.014Z,866.00
2023-05-09T09:42:58.995Z,836.00
2023-05-09T09:43:59.347Z,854.00
2023-05-09T09:44:59.015Z,865.00
2023-05-09T09:45:59.117Z,859.00
2023-05-09T09:46:58.994Z,840.00
2023-05-09T09:47:59.036Z,811.00
2023-05-09T09:48:59.336Z,766.00
2023-05-09T09:49:59.012Z,791.00
2023-05-09T09:50:59.010Z,775.00
2023-05-09T09:51:58.974Z,838.00
2023-05-09T09:52:58.980Z,823.00
2023-05-09T09:53:59.326Z,829.00
2023-05-09T09:54:59.015Z,801.00
2023-05-09T09:55:59.053Z,852.00
2023-05-09T09:56:59.112Z,894.00
2023-05-09T09:57:59.126Z,896.00
2023-05-09T09:58:59.200Z,890.00
2023-05-09T09:59:59.256Z,903.00
2023-05-09T10:00:59.353Z,888.00
2023-05-09T10:01:59.381Z,920.00
2023-05-09T10:02:59.494Z,914.00
2023-05-09T10:03:59.503Z,968.00
2023-05-09T10:04:59.543Z,948.00
2023-05-09T10:05:59.592Z,955.00
2023-05-09T10:06:59.690Z,947.00
2023-05-09T10:07:59.725Z,993.00
2023-05-09T10:08:59.837Z,934.00
2023-05-09T10:09:59.877Z,992.00
2023-05-09T10:10:59.816Z,1003.00
2023-05-09T10:12:00.816Z,987.00
2023-05-09T10:12:59.945Z,1009.00
2023-05-09T10:14:00.332Z,988.00
2023-05-09T10:14:59.985Z,1000.00
2023-05-09T10:16:00.164Z,999.00
2023-05-09T10:17:00.246Z,1018.00
2023-05-09T10:18:00.252Z,1036.00
2023-05-09T10:19:00.234Z,1065.00
2023-05-09T10:20:00.333Z,1106.00
2023-05-09T10:21:00.173Z,1097.00
2023-05-09T10:22:00.204Z,1124.00
2023-05-09T10:23:00.219Z,1115.00
2023-05-09T10:24:00.280Z,1115.00
2023-05-09T10:25:00.347Z,1126.00
2023-05-09T10:26:00.380Z,1116.00
2023-05-09T10:27:00.327Z,1115.00
2023-05-09T10:28:01.346Z,1155.00
2023-05-09T10:29:00.379Z,1157.00
2023-05-09T10:30:00.401Z,1167.00
2023-05-09T10:31:00.461Z,1159.00
2023-05-09T10:32:00.394Z,1170.00
2023-05-09T10:33:00.461Z,1172.00
2023-05-09T10:34:00.466Z,1188.00
2023-05-09T10:35:00.836Z,1185.00
2023-05-09T10:36:00.475Z,1146.00
2023-05-09T10:37:00.507Z,1100.00
2023-05-09T10:38:00.528Z,1052.00
2023-05-09T10:39:00.541Z,1039.00
2023-05-09T10:40:00.580Z,1030.00
2023-05-09T10:41:00.629Z,1025.00
2023-05-09T10:42:00.758Z,991.00
2023-05-09T10:43:00.686Z,997.00
2023-05-09T10:44:00.707Z,1022.00
2023-05-09T10:45:00.727Z,1030.00
2023-05-09T10:46:00.763Z,1026.00
2023-05-09T10:47:00.845Z,1029.00
2023-05-09T10:48:00.825Z,1029.00
2023-05-09T10:49:00.843Z,1038.00
2023-05-09T10:50:00.864Z,1050.00
2023-05-09T10:51:00.857Z,1044.00
2023-05-09T10:52:00.873Z,1036.00
2023-05-09T10:53:00.908Z,1037.00
2023-05-09T10:54:00.965Z,1054.00
2023-05-09T10:55:01.339Z,1063.00
2023-05-09T10:56:00.967Z,1063.00
2023-05-09T10:57:00.973Z,1061.00
2023-05-09T10:58:01.104Z,1064.00
2023-05-09T10:59:01.014Z,1058.00
2023-05-09T11:00:01.335Z,1080.00
2023-05-09T11:01:01.021Z,1091.00
2023-05-09T11:02:01.170Z,1103.00
2023-05-09T11:03:01.094Z,1091.00
2023-05-09T11:04:01.134Z,1103.00
2023-05-09T11:05:01.367Z,1104.00
2023-05-09T11:06:01.062Z,1109.00
2023-05-09T11:07:01.100Z,1125.00
2023-05-09T11:08:01.065Z,1123.00
2023-05-09T11:09:01.090Z,1107.00
2023-05-09T11:10:01.367Z,1100.00
2023-05-09T11:11:01.153Z,1066.00
2023-05-09T11:12:01.121Z,1018.00
2023-05-09T11:13:01.134Z,826.00
2023-05-09T11:14:01.245Z,832.00
2023-05-09T11:15:01.356Z,921.00
2023-05-09T11:16:01.258Z,944.00
2023-05-09T11:17:01.240Z,941.00
2023-05-09T11:18:01.361Z,944.00
2023-05-09T11:19:01.335Z,938.00
2023-05-09T11:20:01.907Z,948.00
2023-05-09T11:21:01.426Z,962.00
2023-05-09T11:22:01.503Z,969.00
2023-05-09T11:23:01.508Z,888.00
2023-05-09T11:24:01.490Z,895.00
2023-05-09T11:25:01.852Z,896.00
2023-05-09T11:26:01.579Z,860.00
2023-05-09T11:27:01.600Z,908.00
2023-05-09T11:28:01.605Z,927.00
2023-05-09T11:29:01.600Z,916.00
2023-05-09T11:30:01.761Z,928.00
2023-05-09T11:31:01.675Z,922.00
2023-05-09T11:32:01.703Z,928.00
2023-05-09T11:33:01.736Z,924.00
2023-05-09T11:34:01.723Z,899.00
2023-05-09T11:35:01.900Z,898.00
2023-05-09T11:36:01.724Z,868.00
2023-05-09T11:37:01.734Z,897.00
2023-05-09T11:38:01.786Z,885.00
2023-05-09T11:39:01.835Z,843.00
2023-05-09T11:40:01.849Z,814.00
2023-05-09T11:41:01.875Z,700.00
2023-05-09T11:42:02.102Z,782.00
2023-05-09T11:43:01.923Z,821.00
2023-05-09T11:44:01.914Z,838.00
2023-05-09T11:45:02.360Z,832.00
2023-05-09T11:46:02.153Z,836.00
2023-05-09T11:47:02.015Z,782.00
2023-05-09T11:48:02.133Z,723.00
2023-05-09T11:49:02.145Z,674.00
2023-05-09T11:50:02.139Z,675.00
2023-05-09T11:51:02.180Z,689.00
2023-05-09T11:52:02.218Z,721.00
2023-05-09T11:53:02.267Z,730.00
2023-05-09T11:54:02.308Z,732.00
2023-05-09T11:55:02.352Z,737.00
2023-05-09T11:56:02.381Z,679.00
2023-05-09T11:57:02.412Z,646.00
2023-05-09T11:58:02.481Z,648.00
2023-05-09T11:59:02.513Z,654.00
2023-05-09T12:00:02.841Z,668.00
2023-05-09T12:01:02.622Z,653.00
2023-05-09T12:02:02.868Z,643.00
2023-05-09T12:03:02.812Z,623.00
2023-05-09T12:04:02.892Z,621.00
2023-05-09T12:05:02.853Z,613.00
2023-05-09T12:06:02.879Z,626.00
2023-05-09T12:07:02.936Z,607.00
2023-05-09T12:08:02.989Z,533.00
2023-05-09T12:09:03.073Z,515.00
2023-05-09T12:10:03.410Z,588.00
2023-05-09T12:11:03.214Z,603.00
2023-05-09T12:12:03.241Z,588.00
2023-05-09T12:13:03.369Z,596.00
2023-05-09T12:14:03.361Z,590.00
2023-05-09T12:15:03.849Z,592.00
2023-05-09T12:16:03.518Z,582.00
2023-05-09T12:17:03.590Z,593.00
2023-05-09T12:18:03.810Z,582.00
2023-05-09T12:19:03.682Z,596.00
2023-05-09T12:20:04.457Z,582.00
2023-05-09T12:21:03.832Z,599.00
2023-05-09T12:22:03.864Z,598.00
2023-05-09T12:23:03.941Z,602.00
2023-05-09T12:24:04.011Z,604.00
2023-05-09T12:25:04.382Z,607.00
2023-05-09T12:26:04.139Z,603.00